createdAt,value
2018-06-29T00:02:33.885Z,586.67
2018-06-29T00:05:22.343Z,584.50
2018-06-29T00:08:10.441Z,588.40
2018-06-29T00:10:58.755Z,587.80
2018-06-29T00:13:49.755Z,554.47
2018-06-29T00:16:36.202Z,545.60
2018-06-29T00:19:26.998Z,594.20
2018-06-29T00:22:14.881Z,581.63
2018-06-29T00:25:07.301Z,609.50
2018-06-29T00:27:54.798Z,612.53
2018-06-29T00:30:41.257Z,617.07
2018-06-29T00:33:25.248Z,595.87
2018-06-29T00:36:06.901Z,602.83
2018-06-29T00:38:55.095Z,594.70
2018-06-29T00:41:37.044Z,515.83
2018-06-29T00:44:24.622Z,549.30
2018-06-29T00:47:12.521Z,619.73
2018-06-29T00:50:01.799Z,533.00
2018-06-29T00:52:47.147Z,517.33
2018-06-29T00:55:31.882Z,914.00
2018-06-29T00:58:16.360Z,1094.40
2018-06-29T01:01:03.847Z,709.43
2018-06-29T01:03:52.616Z,557.93
2018-06-29T01:06:36.998Z,552.37
2018-06-29T01:09:26.206Z,565.13
2018-06-29T01:12:14.982Z,576.10
2018-06-29T01:15:03.659Z,683.80
2018-06-29T01:17:48.481Z,614.83
2018-06-29T01:20:31.126Z,565.13
2018-06-29T01:23:15.657Z,529.27
2018-06-29T02:58:10.602Z,694.20
2018-06-29T03:00:58.609Z,663.77
2018-06-29T03:03:41.817Z,744.53
2018-06-29T03:06:30.466Z,652.07
2018-06-29T03:09:17.763Z,616.40
2018-06-29T03:11:59.175Z,592.73
2018-06-29T03:14:42.197Z,628.50
2018-06-29T03:17:26.862Z,605.40
2018-06-29T04:34:28.614Z,682.13
2018-06-29T04:37:23.832Z,729.50
2018-06-29T04:40:08.512Z,671.60
2018-06-29T04:42:51.816Z,707.37
2018-06-29T04:45:33.976Z,616.10
2018-06-29T04:48:16.071Z,487.80
2018-06-29T04:51:02.230Z,295.17
2018-06-29T04:53:47.533Z,435.40
2018-06-29T04:56:29.672Z,582.10
2018-06-29T04:59:14.529Z,492.70
2018-06-29T05:02:04.135Z,572.00
2018-06-29T05:04:47.758Z,569.77
2018-06-29T05:07:31.318Z,479.77
2018-06-29T05:10:16.613Z,531.50
2018-06-29T05:12:57.111Z,524.03
2018-06-29T05:15:44.113Z,666.07
2018-06-29T05:18:33.939Z,989.73
2018-06-29T05:21:18.238Z,496.73
2018-06-29T05:24:13.792Z,556.43
2018-06-29T05:26:55.371Z,357.17
2018-06-29T05:29:42.069Z,713.83
2018-06-29T05:32:26.074Z,809.03
2018-06-29T05:35:21.190Z,1075.07
2018-06-29T05:38:05.772Z,824.13
2018-06-29T05:40:49.816Z,622.53
2018-06-29T05:43:34.149Z,644.07
2018-06-29T05:49:05.111Z,295.57
2018-06-29T05:51:49.332Z,367.00
2018-06-29T05:54:31.731Z,429.33
2018-06-29T05:57:14.771Z,270.97
2018-06-29T05:59:58.692Z,374.40
2018-06-29T06:02:44.254Z,236.57
2018-06-29T06:05:33.314Z,268.50
2018-06-29T06:08:14.912Z,233.03
2018-06-29T06:10:55.693Z,307.83
2018-06-29T06:13:36.474Z,216.03
2018-06-29T06:16:19.575Z,517.90
2018-06-29T06:19:10.495Z,626.37
2018-06-29T06:21:56.267Z,809.27
2018-06-29T06:24:37.493Z,994.13
2018-06-29T06:27:18.532Z,1178.27
2018-06-29T06:29:58.280Z,814.77
2018-06-29T06:32:39.233Z,1026.53
2018-06-29T06:35:24.555Z,684.73
2018-06-29T06:38:08.675Z,779.43
2018-06-29T06:40:51.403Z,712.20
2018-06-29T06:43:29.660Z,799.80
2018-06-29T06:46:12.395Z,1163.07
2018-06-29T06:48:52.132Z,1221.73
2018-06-29T06:51:32.413Z,444.27
2018-06-29T06:54:15.194Z,701.30
2018-06-29T06:56:54.552Z,528.73
2018-06-29T06:59:37.995Z,509.87
2018-06-29T07:02:20.339Z,946.47
2018-06-29T07:05:03.357Z,1063.63
2018-06-29T07:07:41.589Z,939.90
2018-06-29T07:10:22.740Z,769.20
2018-06-29T07:13:06.416Z,736.90
2018-06-29T07:15:44.754Z,447.67
2018-06-29T07:18:26.934Z,511.60
2018-06-29T07:21:10.954Z,408.77
2018-06-29T07:23:55.838Z,1026.43
2018-06-29T07:26:47.538Z,1066.13
2018-06-29T07:29:34.699Z,817.43
2018-06-29T07:32:18.699Z,809.97
2018-06-29T07:35:06.455Z,863.23
2018-06-29T07:37:53.171Z,692.60
2018-06-29T07:40:39.171Z,1066.43
2018-06-29T07:43:20.495Z,165.03
2018-06-29T07:46:03.771Z,906.83
2018-06-29T07:48:48.619Z,845.57
2018-06-29T07:51:29.576Z,226.57
2018-06-29T07:54:21.652Z,514.10
2018-06-29T07:57:03.775Z,964.30
2018-06-29T07:59:49.600Z,1028.20
2018-06-29T08:02:35.823Z,1048.47
2018-06-29T08:05:21.653Z,762.47
2018-06-29T08:08:07.870Z,1056.80
2018-06-29T08:10:51.700Z,116.47
2018-06-29T08:13:37.813Z,598.77
2018-06-29T08:16:19.954Z,904.90
2018-06-29T08:19:03.592Z,1202.27
2018-06-29T08:21:48.995Z,1316.93
2018-06-29T08:24:34.053Z,1235.87
2018-06-29T08:27:18.111Z,819.80
2018-06-29T08:30:04.935Z,751.03
2018-06-29T08:32:54.655Z,980.03
2018-06-29T08:35:43.936Z,893.73
2018-06-29T08:38:28.893Z,901.97
2018-06-29T08:41:11.753Z,329.83
2018-06-29T08:43:54.475Z,768.70
2018-06-29T10:09:44.041Z,90.65
2018-06-29T10:12:28.922Z,58.80
2018-06-29T10:15:10.382Z,85.70
2018-06-29T10:17:50.621Z,155.30
2018-06-29T10:20:31.848Z,82.02
2018-06-29T10:23:19.739Z,131.45
2018-06-29T10:26:06.185Z,107.22
2018-06-29T10:28:46.241Z,95.92
2018-06-29T11:21:52.501Z,109.45
2018-06-29T11:24:38.385Z,99.60
2018-06-29T11:27:18.382Z,94.85
2018-06-29T11:30:01.584Z,127.60
2018-06-29T11:32:47.217Z,99.42
2018-06-29T11:35:29.380Z,97.25
2018-06-29T11:38:10.384Z,80.20
2018-06-29T11:40:51.227Z,139.37
2018-06-29T11:43:30.840Z,129.95
2018-06-29T11:46:13.741Z,153.25
2018-06-29T11:48:58.516Z,145.40
2018-06-29T11:51:44.561Z,167.75
2018-06-29T11:54:28.259Z,180.50
2018-06-29T11:57:14.529Z,180.78
2018-06-29T11:59:55.398Z,213.82
2018-06-29T12:02:43.627Z,303.45
2018-06-29T12:05:22.682Z,233.72
2018-06-29T12:08:04.136Z,173.40
2018-06-29T12:10:45.890Z,137.65
2018-06-29T12:13:30.283Z,105.10
2018-06-29T12:16:12.979Z,181.65
2018-06-29T12:18:53.223Z,271.43
2018-06-29T12:21:34.219Z,273.38
2018-06-29T12:24:15.807Z,160.70
2018-06-29T13:50:02.371Z,203.75
2018-06-29T13:52:50.259Z,284.85
2018-06-29T13:55:32.890Z,357.18
2018-06-29T13:58:14.558Z,191.43
2018-06-29T14:00:54.854Z,260.60
2018-06-29T14:03:34.418Z,350.80
2018-06-29T14:06:18.473Z,320.52
2018-06-29T14:09:08.375Z,302.57
2018-06-29T14:11:48.873Z,177.40
2018-06-29T14:14:32.830Z,119.87
2018-06-29T14:17:17.471Z,133.20
2018-06-29T14:20:02.448Z,179.03
2018-06-29T14:22:43.891Z,102.22
2018-06-29T14:25:29.878Z,163.22
2018-06-29T14:28:11.025Z,135.07
2018-06-29T14:30:54.814Z,144.17
2018-06-29T14:33:34.991Z,123.28
2018-06-29T14:36:19.552Z,66.55
2018-06-29T14:39:00.099Z,139.85
2018-06-29T14:41:41.229Z,142.43
2018-06-29T14:44:23.451Z,69.15
2018-06-29T15:16:59.693Z,37.40
2018-06-29T15:19:38.932Z,43.63
2018-06-29T15:22:20.191Z,37.03
2018-06-29T15:25:02.431Z,42.60
2018-06-29T15:27:44.594Z,49.42
2018-06-29T15:30:24.914Z,47.98
2018-06-29T15:33:06.856Z,47.67
2018-06-29T15:35:47.040Z,42.00
2018-06-29T15:38:28.122Z,59.23
2018-06-29T15:41:12.395Z,46.23
2018-06-29T15:43:58.735Z,41.28
2018-06-29T17:24:47.114Z,73.25
2018-06-29T17:27:34.781Z,78.83
2018-06-29T17:30:17.694Z,69.45
2018-06-29T17:33:02.615Z,87.62
2018-06-29T17:35:42.153Z,102.60
2018-06-29T17:38:25.391Z,94.97
2018-06-29T17:41:10.894Z,86.55
2018-06-29T17:43:53.291Z,105.17
2018-06-29T17:46:40.996Z,87.17
2018-06-29T17:49:20.031Z,96.50
2018-06-29T17:52:09.156Z,99.37
2018-06-29T17:54:53.649Z,92.62
2018-06-29T17:57:35.055Z,106.67
2018-06-29T18:00:16.271Z,115.20
2018-06-29T18:02:57.292Z,110.15
2018-06-29T18:05:32.537Z,110.85
2018-06-29T18:08:12.163Z,103.83
2018-06-29T18:10:50.946Z,95.95
2018-06-29T18:13:30.041Z,91.32
2018-06-29T18:16:08.933Z,80.67
2018-06-29T18:18:51.281Z,72.35
2018-06-29T18:21:42.261Z,71.80
2018-06-29T18:24:25.205Z,68.33
2018-06-29T18:27:06.066Z,74.82
2018-06-29T18:29:49.153Z,76.15
2018-06-29T18:32:30.256Z,84.28
2018-06-29T19:50:19.885Z,337.17
2018-06-29T19:53:08.739Z,172.50
2018-06-29T19:55:47.354Z,113.23
2018-06-29T19:58:26.832Z,338.27
2018-06-29T20:01:06.171Z,419.63
2018-06-29T20:03:46.739Z,701.07
2018-06-29T20:06:27.392Z,707.33
2018-06-29T20:09:08.612Z,693.50
2018-06-29T20:11:51.674Z,798.53
2018-06-29T20:14:32.893Z,881.07
2018-06-29T20:17:11.716Z,813.00
2018-06-29T20:19:55.634Z,760.83
2018-06-29T20:22:36.551Z,688.87
2018-06-29T20:25:20.411Z,498.33
2018-06-29T20:28:10.533Z,374.83
2018-06-29T20:30:59.795Z,323.23
2018-06-29T20:33:42.116Z,243.03
2018-06-29T20:36:24.911Z,235.13
2018-06-29T20:39:08.471Z,387.57
2018-06-29T21:50:31.812Z,1027.60
2018-06-29T21:53:13.561Z,912.47
2018-06-29T21:55:54.993Z,906.73
2018-06-29T21:58:39.532Z,1048.60
2018-06-29T22:01:22.151Z,1104.00
2018-06-29T22:04:01.361Z,897.80
2018-06-29T22:06:43.140Z,617.60
2018-06-29T22:09:22.136Z,585.00
2018-06-29T22:34:01.538Z,782.00
2018-06-29T22:36:47.943Z,565.57
2018-06-29T22:39:29.158Z,396.50
2018-06-29T22:42:11.739Z,310.63
2018-06-29T22:44:57.021Z,257.60
2018-06-29T22:47:37.756Z,270.37
2018-06-29T22:50:21.359Z,541.67
2018-06-29T22:53:02.582Z,731.13
2018-06-29T22:55:45.538Z,868.57
2018-06-29T22:58:31.480Z,987.97
2018-06-29T23:01:12.674Z,1042.93
2018-06-29T23:04:00.539Z,1101.37
2018-06-29T23:06:42.958Z,1082.23
2018-06-29T23:09:24.767Z,1100.00
2018-06-29T23:12:09.977Z,1115.80
2018-06-29T23:14:54.583Z,1109.53
2018-06-29T23:17:35.805Z,1123.77
2018-06-29T23:20:17.283Z,1114.60
2018-06-29T23:23:02.160Z,1146.10
2018-06-29T23:25:42.485Z,1135.77
2018-06-29T23:28:25.981Z,1120.43
2018-06-29T23:31:09.044Z,1106.33
2018-06-29T23:33:49.700Z,1075.90
2018-06-29T23:36:30.857Z,1057.33
2018-06-29T23:39:17.162Z,1012.87
2018-06-29T23:41:59.945Z,1063.17
2018-06-29T23:44:42.137Z,1046.03
2018-06-29T23:47:26.400Z,1098.23
2018-06-29T23:50:08.083Z,1056.73
2018-06-29T23:52:48.240Z,1103.23
2018-06-29T23:55:28.621Z,1079.20
2018-06-29T23:58:12.121Z,1097.87
